• Join FlightAware (Why Join?)
  • Login
  • US Flag 
08:46AM EDT


 

Airport Tracker/Info


-or-


 

Live Flight TrackerFlight Track Log ✈ EJA729 ✈ 20-Jun-2013 ✈ KMDW - KGSO

Flight Track Log - Related Links

Times and Time Zones

All times are in EDT time to prevent confusion due to time zone crossing. See the EJA729 flight status page for this flight to view local times or setup timezone preferences in your user account.

Time Position Orientation Groundspeed Altitude Reporting Facility
EDT Latitude Longitude Course Direction KTS MPH feet Rate Location/Type
03:56PM 41.7178 -87.5994 174° South 287 330 6,000  Level Chicago Center
03:57PM 41.6422 -87.5886 174° South 274 315 6,900 1,740 Climbing Chicago Center
03:58PM 41.5622 -87.5825 177° South 287 330 9,700 3,060 Climbing Chicago Center
03:59PM 41.4750 -87.5756 177° South 309 356 13,300 3,720 Climbing Chicago Center
04:00PM 41.3561 -87.5611 175° South 353 406 17,500 3,360 Climbing Chicago Center
04:01PM 41.2514 -87.5422 172° South 375 432 20,300 2,580 Climbing Chicago Center
04:02PM 41.1414 -87.5175 170° South 397 457 22,900 2,220 Climbing Chicago Center
04:03PM 41.0247 -87.4861 169° South 424 488 24,900 1,920 Climbing Chicago Center
04:04PM 40.9014 -87.4525 168° South 444 511 26,900 1,920 Climbing Chicago Center
04:05PM 40.7753 -87.4206 169° South 460 529 28,900 2,100 Climbing Chicago Center
04:06PM 40.6244 -87.3806 169° South 463 533 31,300 2,100 Climbing Chicago Center
04:07PM 40.5000 -87.3483 169° South 460 529 33,300 1,860 Climbing Chicago Center
04:08PM 40.3844 -87.3181 169° South 455 524 35,200 1,740 Climbing Chicago Center
04:09PM 40.2633 -87.2861 169° South 447 514 37,000 1,320 Climbing Chicago Center
04:10PM 40.1333 -87.1939 152° Southeast 456 525 38,000 900 Climbing Chicago Center
04:11PM 40.0639 -87.0867 130° Southeast 477 549 38,800 480 Climbing Indianapolis Center
04:12PM 39.9833 -86.9492 127° Southeast 479 551 39,000 60 Climbing Indianapolis Center
04:13PM 39.8800 -86.7792 128° Southeast 496 571 39,000  Level Indianapolis Center
04:14PM 39.7947 -86.6392 128° Southeast 498 573 39,000  Level Indianapolis Center
04:15PM 39.7094 -86.4994 128° Southeast 500 575 39,000  Level Indianapolis Center
04:16PM 39.6250 -86.3625 129° Southeast 502 578 39,000  Level Indianapolis Center
04:17PM 39.5233 -86.1953 128° Southeast 503 579 39,000  Level Indianapolis Center
04:18PM 39.4383 -86.0558 128° Southeast 501 577 39,000  Level Indianapolis Center
04:19PM 39.3519 -85.9167 129° Southeast 500 575 39,000  Level Indianapolis Center
04:20PM 39.2656 -85.7767 129° Southeast 499 574 39,000  Level Indianapolis Center
04:21PM 39.1792 -85.6389 129° Southeast 497 572 39,000  Level Indianapolis Center
04:22PM 39.0769 -85.4744 129° Southeast 492 566 39,000  Level Indianapolis Center
04:23PM 38.9903 -85.3375 129° Southeast 495 570 39,000  Level Indianapolis Center
04:24PM 38.9036 -85.2017 129° Southeast 493 567 39,000  Level Indianapolis Center
04:26PM 38.8172 -85.0664 129° Southeast 492 566 39,000  Level Indianapolis Center
04:27PM 38.7311 -84.9314 129° Southeast 491 565 39,000  Level Indianapolis Center
04:28PM 38.6317 -84.7767 129° Southeast 482 555 39,000  Level Indianapolis Center
04:29PM 38.5464 -84.6425 129° Southeast 483 556 39,000  Level Indianapolis Center
04:30PM 38.4606 -84.5100 130° Southeast 482 555 39,000  Level Indianapolis Center
04:31PM 38.3736 -84.3789 130° Southeast 483 556 39,000 -480 Level Indianapolis Center
04:32PM 38.2878 -84.2467 130° Southeast 482 555 38,100 -1,440 Descending Indianapolis Center
04:33PM 38.1881 -84.0956 130° Southeast 476 548 36,000 -2,040 Descending Indianapolis Center
04:34PM 38.1028 -83.9653 130° Southeast 478 550 33,900 -1,500 Descending Indianapolis Center
04:35PM 38.0181 -83.8372 130° Southeast 470 541 33,000 -480 Descending Indianapolis Center
04:36PM 37.9317 -83.7083 130° Southeast 477 549 33,000  Level Indianapolis Center
04:37PM 37.8464 -83.5753 129° Southeast 483 556 33,000 -240 Level Indianapolis Center
04:38PM 37.7447 -83.4244 130° Southeast 483 556 32,600 -1,020 Descending Indianapolis Center
04:39PM 37.6592 -83.2967 130° Southeast 475 547 31,000 -1,260 Descending Indianapolis Center
04:40PM 37.5717 -83.1675 130° Southeast 481 554 30,000 -540 Descending Indianapolis Center
04:41PM 37.4842 -83.0369 130° Southeast 485 558 30,000  Level Indianapolis Center
04:42PM 37.3953 -82.9064 131° Southeast 487 560 30,000 -420 Level Indianapolis Center
04:43PM 37.3064 -82.7750 130° Southeast 489 563 29,200 -1,200 Descending Indianapolis Center
04:44PM 37.2181 -82.6472 131° Southeast 482 555 27,600 -1,080 Descending Indianapolis Center
04:45PM 37.1186 -82.5031 131° Southeast 466 536 27,000 -300 Descending Indianapolis Center
04:46PM 37.0325 -82.3783 131° Southeast 466 536 27,000  Level Indianapolis Center
04:47PM 36.9444 -82.2522 131° Southeast 475 547 27,000 -300 Level Indianapolis Center
04:48PM 36.8564 -82.1258 131° Southeast 479 551 26,400 -540 Descending Indianapolis Center
04:49PM 36.7769 -82.0011 128° Southeast 460 529 26,000 -240 Descending Indianapolis Center
04:50PM 36.6981 -81.8708 127° Southeast 464 534 26,000 -840 Level Indianapolis Center
04:51PM 36.6039 -81.7175 127° Southeast 472 543 24,300 -1,560 Descending Indianapolis Center
04:52PM 36.5300 -81.5981 128° Southeast 443 510 22,800 -1,680 Descending Indianapolis Center
04:53PM 36.4575 -81.4814 128° Southeast 428 493 20,800 -1,800 Descending Indianapolis Center
04:54PM 36.3947 -81.3633 123° Southeast 414 476 19,100 -1,500 Descending Indianapolis Center
04:56PM 36.3469 -81.2394 116° Southeast 398 458 17,700 -1,560 Descending Indianapolis Center
04:57PM 36.2958 -81.1061 115° Southeast 388 447 15,900 -1,680 Descending Indianapolis Center
04:58PM 36.2453 -80.9753 116° Southeast 380 437 14,200 -1,620 Descending Atlanta Center